Time;durP1;ratioP1;P1;durP2;ratioP2;P2;SDS_P1;SDS_P2;PMS_P1;PMS_P2;Temp;Humidity;BMP_temperature;BMP_pressure;BME280_temperature;BME280_humidity;BME280_pressure;Samples;Min_cycle;Max_cycle;Signal;HPM_P1;HPM_P2
2021/06/15 00:02:00;;;;;;;7.55;4.50;;;22.40;99.90;;;;;;5017911;28;20029;-92
2021/06/15 00:04:26;;;;;;;6.25;4.30;;;22.40;99.90;;;;;;5034788;28;20040;-92
2021/06/15 00:06:52;;;;;;;6.47;4.40;;;22.40;99.90;;;;;;5035194;28;20029;-92
2021/06/15 00:09:17;;;;;;;4.82;4.30;;;22.30;99.90;;;;;;5017609;28;20033;-93
2021/06/15 00:11:43;;;;;;;4.90;4.43;;;22.20;99.90;;;;;;5017964;28;20056;-92
2021/06/15 00:14:09;;;;;;;5.05;4.25;;;22.30;99.90;;;;;;5018105;28;20030;-92
2021/06/15 00:16:34;;;;;;;4.60;4.20;;;22.30;99.90;;;;;;5034997;28;20462;-92
2021/06/15 00:19:00;;;;;;;5.22;4.72;;;22.30;99.90;;;;;;5034880;28;20083;-92
2021/06/15 00:21:25;;;;;;;4.68;4.18;;;22.30;99.90;;;;;;5012879;28;20478;-92
2021/06/15 00:23:51;;;;;;;4.50;4.10;;;22.30;99.90;;;;;;5035457;28;20072;-92
2021/06/15 00:26:17;;;;;;;6.22;4.40;;;22.20;99.90;;;;;;5035072;28;20060;-92
2021/06/15 00:28:42;;;;;;;4.85;4.18;;;22.20;99.90;;;;;;5016704;28;20057;-92
2021/06/15 00:31:08;;;;;;;5.45;4.63;;;22.20;99.90;;;;;;5035222;28;20025;-92
2021/06/15 00:33:33;;;;;;;6.20;4.78;;;22.20;99.90;;;;;;5016464;28;20036;-92
2021/06/15 00:35:59;;;;;;;4.82;4.32;;;22.20;99.90;;;;;;5035422;28;20083;-92
2021/06/15 00:38:25;;;;;;;5.68;4.63;;;22.00;99.90;;;;;;5034049;28;20060;-91
2021/06/15 00:40:51;;;;;;;4.97;4.47;;;22.10;99.90;;;;;;5015067;28;20033;-92
2021/06/15 00:43:16;;;;;;;5.55;4.50;;;22.20;99.90;;;;;;5017727;28;20438;-92
2021/06/15 00:45:42;;;;;;;5.45;4.88;;;22.20;99.90;;;;;;5034851;28;20052;-92
2021/06/15 00:48:25;;;;;;;6.57;4.38;;;22.00;99.90;;;;;;5034536;28;20040;-92
2021/06/15 00:50:51;;;;;;;5.47;4.70;;;22.00;99.90;;;;;;5020703;28;20083;-92
2021/06/15 00:53:16;;;;;;;5.07;4.68;;;22.10;99.90;;;;;;5017288;28;20029;-91
2021/06/15 00:55:42;;;;;;;5.43;4.97;;;22.10;99.90;;;;;;5035055;28;20048;-92
2021/06/15 00:58:08;;;;;;;7.35;4.70;;;22.00;99.90;;;;;;5034094;28;20060;-92
2021/06/15 01:00:33;;;;;;;5.53;4.80;;;21.90;99.90;;;;;;5012342;28;20521;-92
2021/06/15 01:02:59;;;;;;;5.40;4.90;;;22.00;99.90;;;;;;5034561;28;20099;-91
2021/06/15 01:05:25;;;;;;;4.95;4.55;;;21.90;99.90;;;;;;5034236;28;20037;-92
2021/06/15 01:08:04;;;;;;;5.47;4.97;;;21.90;99.90;;;;;;5035758;28;20026;-92
2021/06/15 01:10:53;;;;;;;6.95;4.95;;;21.80;99.90;;;;;;5012418;28;20033;-92
2021/06/15 01:13:57;;;;;;;5.20;4.65;;;21.70;99.90;;;;;;5034526;28;20040;-92
2021/06/15 01:16:33;;;;;;;7.22;4.85;;;21.60;99.90;;;;;;5034185;28;20045;-93
2021/06/15 01:19:19;;;;;;;6.90;5.07;;;21.40;99.90;;;;;;5016442;28;20080;-92
2021/06/15 01:22:04;;;;;;;5.63;4.47;;;21.50;99.90;;;;;;5034203;28;20029;-92
2021/06/15 01:24:42;;;;;;;5.75;4.82;;;21.50;99.90;;;;;;5034397;28;20037;-92
2021/06/15 01:27:26;;;;;;;6.13;4.72;;;21.50;99.90;;;;;;5034470;28;20543;-92
2021/06/15 01:29:55;;;;;;;8.35;5.25;;;21.30;99.90;;;;;;5019761;28;20028;-93
2021/06/15 01:32:28;;;;;;;6.18;4.95;;;21.40;99.90;;;;;;5033556;28;20467;-92
2021/06/15 01:34:55;;;;;;;5.97;4.90;;;21.50;99.90;;;;;;5032619;28;20467;-92
2021/06/15 01:37:28;;;;;;;6.57;5.10;;;21.40;99.90;;;;;;5034233;28;20104;-92
2021/06/15 01:40:22;;;;;;;5.80;5.20;;;21.30;99.90;;;;;;5016257;28;20108;-93
2021/06/15 01:42:51;;;;;;;6.18;5.30;;;21.30;99.90;;;;;;5012226;28;20036;-92
2021/06/15 01:45:21;;;;;;;8.77;5.20;;;21.30;99.90;;;;;;5033115;28;20394;-93
2021/06/15 01:48:15;;;;;;;5.95;5.35;;;21.30;99.90;;;;;;5015823;28;20029;-92
2021/06/15 01:50:43;;;;;;;6.25;5.43;;;21.20;99.90;;;;;;4957490;28;20049;-92
2021/06/15 01:53:12;;;;;;;6.13;5.50;;;21.10;99.90;;;;;;4969359;28;20035;-92
2021/06/15 01:55:54;;;;;;;5.97;5.47;;;21.10;99.90;;;;;;4973133;28;20056;-92
2021/06/15 01:58:27;;;;;;;6.40;5.70;;;21.20;99.90;;;;;;4972596;28;20023;-92
2021/06/15 02:00:54;;;;;;;6.25;5.32;;;21.10;99.90;;;;;;4972115;28;20057;-93
2021/06/15 02:03:21;;;;;;;7.57;5.13;;;21.00;99.90;;;;;;4956679;28;20031;-93
2021/06/15 02:05:51;;;;;;;6.82;5.32;;;20.90;99.90;;;;;;4957104;28;20042;-93
2021/06/15 02:08:24;;;;;;;5.68;5.03;;;21.00;99.90;;;;;;4956750;28;20082;-92
2021/06/15 02:10:51;;;;;;;5.50;4.72;;;21.20;99.90;;;;;;4957118;28;20030;-92
2021/06/15 02:13:18;;;;;;;6.50;5.80;;;21.00;99.90;;;;;;4972920;28;20058;-92
2021/06/15 02:15:44;;;;;;;7.47;5.40;;;21.00;99.90;;;;;;4955879;28;20045;-93
2021/06/15 02:18:10;;;;;;;7.63;5.53;;;21.00;99.90;;;;;;4972023;28;20034;-92
2021/06/15 02:20:43;;;;;;;5.80;5.20;;;21.10;99.90;;;;;;4972486;28;20039;-92
2021/06/15 02:23:12;;;;;;;6.13;5.55;;;21.00;99.90;;;;;;4968885;28;20137;-92
2021/06/15 02:25:40;;;;;;;5.97;5.38;;;20.90;99.90;;;;;;4972704;28;20062;-92
2021/06/15 02:28:06;;;;;;;6.47;5.38;;;20.90;99.90;;;;;;5010409;28;20042;-92
2021/06/15 02:30:32;;;;;;;6.38;5.40;;;20.70;99.90;;;;;;5010853;28;20025;-92
2021/06/15 02:33:06;;;;;;;7.10;5.70;;;20.70;99.90;;;;;;5033053;28;20105;-92
2021/06/15 02:35:32;;;;;;;8.23;5.78;;;20.70;99.90;;;;;;5032949;28;20045;-93
2021/06/15 02:38:05;;;;;;;6.13;5.55;;;20.70;99.90;;;;;;5016033;28;20022;-93
2021/06/15 02:40:32;;;;;;;6.25;5.65;;;20.60;99.90;;;;;;5033083;28;20288;-92
2021/06/15 02:42:59;;;;;;;6.05;5.55;;;20.70;99.90;;;;;;5033235;28;20029;-93
2021/06/15 02:45:31;;;;;;;6.15;5.55;;;20.60;99.90;;;;;;5033097;28;20030;-92
2021/06/15 02:48:01;;;;;;;6.20;5.60;;;20.60;99.90;;;;;;5033471;28;20041;-93
2021/06/15 02:50:28;;;;;;;6.45;5.57;;;20.50;99.90;;;;;;5014938;28;20049;-93
2021/06/15 02:53:17;;;;;;;8.60;5.78;;;20.40;99.90;;;;;;5033532;28;20035;-92
2021/06/15 02:56:04;;;;;;;6.10;5.50;;;20.40;99.90;;;;;;5033368;28;20037;-93
2021/06/15 02:58:30;;;;;;;5.95;5.35;;;20.40;99.90;;;;;;5032630;28;20030;-93
2021/06/15 03:00:56;;;;;;;6.25;5.65;;;20.30;99.90;;;;;;5032922;28;20042;-93
2021/06/15 03:03:22;;;;;;;7.03;5.65;;;20.40;99.90;;;;;;5018610;28;20026;-93
2021/06/15 03:05:47;;;;;;;6.22;5.63;;;20.40;99.90;;;;;;5039672;28;20021;-92
2021/06/15 03:08:13;;;;;;;6.15;5.50;;;20.40;99.90;;;;;;5021957;28;20049;-93
2021/06/15 03:10:39;;;;;;;7.63;5.80;;;20.50;99.90;;;;;;5022045;28;20025;-92
2021/06/15 03:13:20;;;;;;;6.82;6.07;;;20.40;99.90;;;;;;5038847;28;20079;-93
2021/06/15 03:15:49;;;;;;;6.50;5.70;;;20.40;99.90;;;;;;5038950;28;20045;-92
2021/06/15 03:18:28;;;;;;;7.80;6.05;;;20.30;99.90;;;;;;5039657;28;20111;-93
2021/06/15 03:21:05;;;;;;;7.07;6.15;;;20.30;99.90;;;;;;5039823;28;20033;-92
2021/06/15 03:23:51;;;;;;;7.35;5.80;;;20.30;99.90;;;;;;5039162;28;20056;-93
2021/06/15 03:26:21;;;;;;;6.90;5.70;;;20.30;99.90;;;;;;5036461;28;20088;-93
2021/06/15 03:28:56;;;;;;;6.90;6.20;;;20.30;99.90;;;;;;5021426;28;20029;-93
2021/06/15 03:31:23;;;;;;;8.73;6.00;;;20.30;99.90;;;;;;5039689;28;20029;-92
2021/06/15 03:33:52;;;;;;;7.05;5.93;;;20.30;99.90;;;;;;5039370;28;20025;-93
2021/06/15 03:36:21;;;;;;;7.00;5.97;;;20.20;99.90;;;;;;5038746;28;20463;-92
2021/06/15 03:38:49;;;;;;;6.43;5.82;;;20.20;99.90;;;;;;5022082;28;20489;-93
2021/06/15 03:41:16;;;;;;;6.43;5.80;;;20.00;99.90;;;;;;5021568;28;20025;-92
2021/06/15 03:43:48;;;;;;;6.35;5.75;;;20.00;99.90;;;;;;5021178;28;20085;-93
2021/06/15 03:46:15;;;;;;;7.28;5.97;;;19.90;99.90;;;;;;5039363;28;20176;-93
2021/06/15 03:48:46;;;;;;;6.80;6.07;;;20.00;99.90;;;;;;5021697;28;20398;-93
2021/06/15 03:51:16;;;;;;;7.75;6.05;;;20.00;99.90;;;;;;5021412;28;20101;-93
2021/06/15 03:53:42;;;;;;;8.18;6.30;;;19.90;99.90;;;;;;5039412;28;20701;-93
2021/06/15 03:56:09;;;;;;;6.38;5.78;;;20.10;99.90;;;;;;5022099;28;20044;-92
2021/06/15 03:58:36;;;;;;;6.65;5.72;;;20.10;99.90;;;;;;5016478;28;20044;-93
2021/06/15 04:01:03;;;;;;;8.55;5.97;;;20.10;99.90;;;;;;5039190;28;20078;-93
2021/06/15 04:03:32;;;;;;;8.07;6.28;;;20.10;99.90;;;;;;5015190;28;20025;-93
2021/06/15 04:05:58;;;;;;;8.70;6.05;;;20.00;99.90;;;;;;5025631;28;20489;-93
2021/06/15 04:08:26;;;;;;;8.27;6.63;;;20.10;99.90;;;;;;5039691;28;20021;-93
2021/06/15 04:10:53;;;;;;;8.32;6.47;;;20.00;99.90;;;;;;5039591;28;20505;-93
2021/06/15 04:13:21;;;;;;;6.47;5.85;;;20.00;99.90;;;;;;5040236;28;20029;-93
2021/06/15 04:15:50;;;;;;;7.55;6.38;;;20.10;99.90;;;;;;5036817;28;20057;-93
2021/06/15 04:18:17;;;;;;;7.50;6.32;;;20.20;99.90;;;;;;5036557;28;20071;-93
2021/06/15 04:20:46;;;;;;;7.22;6.40;;;20.20;99.90;;;;;;5035736;28;20026;-93
2021/06/15 04:23:18;;;;;;;7.93;6.00;;;20.10;99.90;;;;;;5018299;28;20041;-93
2021/06/15 04:25:46;;;;;;;7.70;5.72;;;20.00;99.90;;;;;;5034530;28;20339;-92
2021/06/15 04:28:13;;;;;;;6.88;6.03;;;20.00;99.90;;;;;;5036351;28;20025;-93
2021/06/15 04:30:40;;;;;;;9.40;6.35;;;20.10;99.90;;;;;;5036709;28;20389;-93
2021/06/15 04:33:09;;;;;;;8.10;6.40;;;20.10;99.90;;;;;;5035839;28;20033;-93
2021/06/15 04:35:37;;;;;;;7.05;6.28;;;20.20;99.90;;;;;;5035460;28;20045;-93
2021/06/15 04:38:13;;;;;;;7.05;6.30;;;20.20;99.90;;;;;;5035813;28;20580;-92
2021/06/15 04:40:43;;;;;;;8.70;5.90;;;20.10;99.90;;;;;;5035181;28;20040;-94
2021/06/15 04:43:21;;;;;;;7.30;6.15;;;20.10;99.90;;;;;;5035267;28;20022;-93
2021/06/15 04:45:48;;;;;;;7.03;6.13;;;20.10;99.90;;;;;;5035008;28;20044;-93
2021/06/15 04:48:32;;;;;;;7.85;6.47;;;20.20;99.90;;;;;;5035181;28;20032;-93
2021/06/15 04:51:00;;;;;;;8.75;5.90;;;20.20;99.90;;;;;;5003792;28;20029;-93
2021/06/15 04:53:29;;;;;;;8.35;6.80;;;20.40;99.90;;;;;;5036857;28;20029;-93
2021/06/15 04:55:56;;;;;;;8.65;5.95;;;20.30;99.90;;;;;;5018145;28;20037;-93
2021/06/15 04:58:22;;;;;;;8.25;6.55;;;20.30;99.90;;;;;;5034670;28;20056;-94
2021/06/15 05:00:50;;;;;;;7.93;7.03;;;20.40;99.90;;;;;;5033768;28;20056;-88
2021/06/15 05:03:19;;;;;;;11.18;6.22;;;20.40;99.90;;;;;;5033354;28;20025;-90
2021/06/15 05:05:48;;;;;;;8.07;6.47;;;20.40;99.90;;;;;;5033497;28;20052;-90
2021/06/15 05:08:17;;;;;;;8.75;6.63;;;20.50;99.90;;;;;;5034340;28;20018;-89
2021/06/15 05:10:45;;;;;;;8.05;7.03;;;20.50;99.90;;;;;;5029527;28;20036;-89
2021/06/15 05:13:12;;;;;;;10.32;6.63;;;20.50;99.90;;;;;;5015706;28;20029;-88
2021/06/15 05:15:44;;;;;;;8.93;6.53;;;20.60;99.90;;;;;;5033510;28;20518;-92
2021/06/15 05:18:10;;;;;;;7.70;6.32;;;20.70;99.90;;;;;;5012144;28;20026;-90
2021/06/15 05:20:36;;;;;;;8.45;5.70;;;20.70;99.90;;;;;;5033006;28;20117;-90
2021/06/15 05:23:34;;;;;;;10.15;6.65;;;20.70;99.90;;;;;;5016172;28;20045;-89
2021/06/15 05:25:59;;;;;;;9.50;6.60;;;20.90;99.90;;;;;;5023309;28;20044;-89
2021/06/15 05:28:25;;;;;;;8.15;6.43;;;20.80;99.90;;;;;;5015704;28;20029;-88
2021/06/15 05:30:50;;;;;;;8.23;6.45;;;20.70;99.90;;;;;;5033577;28;20036;-91
2021/06/15 05:33:16;;;;;;;6.85;6.10;;;20.80;99.90;;;;;;5033312;28;20060;-90
2021/06/15 05:35:42;;;;;;;6.65;6.05;;;20.80;99.90;;;;;;5033005;28;20541;-89
2021/06/15 05:38:09;;;;;;;7.45;5.60;;;21.00;99.90;;;;;;5033334;28;20018;-90
2021/06/15 05:40:35;;;;;;;7.55;6.32;;;20.90;99.90;;;;;;5032801;28;20045;-90
2021/06/15 05:43:02;;;;;;;10.45;6.78;;;21.00;99.90;;;;;;5010806;28;20482;-89
2021/06/15 05:45:27;;;;;;;8.23;6.60;;;21.10;99.90;;;;;;5033111;28;20482;-91
2021/06/15 05:47:53;;;;;;;9.13;6.97;;;21.10;99.90;;;;;;5033099;28;20036;-89
2021/06/15 05:50:18;;;;;;;9.80;6.63;;;21.20;99.90;;;;;;5027049;28;20072;-89
2021/06/15 05:52:45;;;;;;;10.10;6.90;;;21.20;99.90;;;;;;5013795;28;20033;-90
2021/06/15 05:55:12;;;;;;;8.38;6.75;;;21.30;99.90;;;;;;5032138;28;20497;-89
2021/06/15 05:57:39;;;;;;;10.77;6.45;;;21.30;99.90;;;;;;5032198;28;20034;-89
2021/06/15 06:00:07;;;;;;;7.05;6.45;;;21.30;99.90;;;;;;5014842;28;20024;-89
2021/06/15 06:02:32;;;;;;;8.65;6.43;;;21.40;99.90;;;;;;5032047;28;20029;-90
2021/06/15 06:05:08;;;;;;;10.35;6.30;;;21.50;99.90;;;;;;5032855;28;20351;-89
2021/06/15 06:10:18;;;;;;;8.80;5.93;;;21.70;99.90;;;;;;5032934;28;20036;-89
2021/06/15 06:12:44;;;;;;;7.07;6.15;;;21.90;99.90;;;;;;5032333;28;20041;-88
2021/06/15 06:15:11;;;;;;;7.88;5.90;;;21.90;99.90;;;;;;5032847;28;20033;-88
2021/06/15 06:17:40;;;;;;;7.20;6.05;;;21.90;99.90;;;;;;5012900;28;20495;-89
2021/06/15 06:20:07;;;;;;;9.70;6.18;;;22.10;99.90;;;;;;5032784;28;20032;-88
2021/06/15 06:22:34;;;;;;;9.18;5.55;;;22.20;99.90;;;;;;5014449;28;20042;-89
2021/06/15 06:25:03;;;;;;;10.23;5.07;;;22.30;99.90;;;;;;5016245;28;20033;-89
2021/06/15 06:27:28;;;;;;;8.40;4.75;;;22.40;99.90;;;;;;5032157;28;20397;-89
2021/06/15 06:29:54;;;;;;;7.15;5.20;;;22.50;99.90;;;;;;5032111;28;20034;-89
2021/06/15 06:32:20;;;;;;;9.50;5.57;;;22.50;99.90;;;;;;5032595;28;20030;-89
2021/06/15 06:34:46;;;;;;;7.30;5.63;;;22.60;99.90;;;;;;5017152;28;20032;-89
2021/06/15 06:37:11;;;;;;;6.05;4.85;;;22.70;99.90;;;;;;5031625;28;20116;-89
2021/06/15 06:39:39;;;;;;;6.03;5.10;;;22.70;99.90;;;;;;5031835;28;20738;-93
2021/06/15 06:42:04;;;;;;;6.03;4.95;;;22.60;99.90;;;;;;5016234;28;20469;-91
2021/06/15 06:44:30;;;;;;;6.78;5.13;;;22.70;99.90;;;;;;5033014;28;20041;-88
2021/06/15 06:46:56;;;;;;;7.05;5.70;;;22.80;99.90;;;;;;5033365;28;20107;-93
2021/06/15 06:49:21;;;;;;;7.15;4.80;;;22.80;99.90;;;;;;5015851;28;20021;-92
2021/06/15 06:51:47;;;;;;;6.20;4.40;;;22.70;99.90;;;;;;5015451;28;20029;-92
2021/06/15 06:54:13;;;;;;;8.15;5.32;;;22.60;99.90;;;;;;5024568;28;20108;-92
2021/06/15 06:56:38;;;;;;;5.78;4.65;;;22.70;99.90;;;;;;5031449;28;20037;-91
2021/06/15 06:59:04;;;;;;;7.45;4.57;;;22.70;99.90;;;;;;5015802;28;20072;-92
2021/06/15 07:01:29;;;;;;;6.63;4.65;;;22.80;99.90;;;;;;5033414;28;20402;-91
2021/06/15 07:03:55;;;;;;;7.00;4.53;;;22.80;99.90;;;;;;5033368;28;20036;-91
2021/06/15 07:06:21;;;;;;;5.32;4.78;;;22.90;99.90;;;;;;5032396;28;20025;-91
2021/06/15 07:08:47;;;;;;;6.72;4.72;;;22.90;99.90;;;;;;5032203;28;20507;-91
2021/06/15 07:11:13;;;;;;;6.10;4.15;;;23.00;99.90;;;;;;5032577;28;20482;-92
2021/06/15 07:13:39;;;;;;;11.15;4.85;;;23.10;99.90;;;;;;5014626;28;20039;-91
2021/06/15 07:16:06;;;;;;;7.00;5.20;;;23.20;99.90;;;;;;5014542;28;20041;-92
2021/06/15 07:18:35;;;;;;;9.07;4.65;;;23.30;99.90;;;;;;5031986;28;20056;-92
2021/06/15 07:21:02;;;;;;;7.90;4.63;;;23.30;99.90;;;;;;5014148;28;20061;-91
2021/06/15 07:23:27;;;;;;;6.68;4.70;;;23.40;99.90;;;;;;5031558;28;20042;-91
2021/06/15 07:25:53;;;;;;;5.55;4.75;;;23.50;99.90;;;;;;5029698;28;20110;-91
2021/06/15 07:28:18;;;;;;;6.50;5.25;;;23.50;99.90;;;;;;5032450;28;20028;-92
2021/06/15 07:30:44;;;;;;;7.10;5.00;;;23.50;99.90;;;;;;5033005;28;20129;-93
2021/06/15 07:33:10;;;;;;;7.35;4.90;;;23.50;99.90;;;;;;5033123;28;20024;-93
2021/06/15 07:35:35;;;;;;;5.57;5.00;;;23.50;99.90;;;;;;5031847;28;20084;-93
2021/06/15 07:38:01;;;;;;;6.53;5.07;;;23.60;99.90;;;;;;5032970;28;20083;-92
2021/06/15 07:40:26;;;;;;;6.85;5.00;;;23.60;99.90;;;;;;5032451;28;20493;-93
2021/06/15 07:42:55;;;;;;;5.78;5.20;;;23.70;99.90;;;;;;5005714;28;20049;-92
2021/06/15 07:45:22;;;;;;;9.07;4.88;;;23.80;99.90;;;;;;5018021;28;20108;-93
2021/06/15 07:47:48;;;;;;;6.03;4.68;;;23.90;99.90;;;;;;5015250;28;20037;-93
2021/06/15 07:50:15;;;;;;;6.75;5.53;;;23.80;99.90;;;;;;5034912;28;20025;-92
2021/06/15 07:52:41;;;;;;;5.35;4.78;;;23.80;99.90;;;;;;5036532;28;20472;-93
2021/06/15 07:55:08;;;;;;;6.50;5.10;;;23.90;99.90;;;;;;5018365;28;20040;-92
2021/06/15 07:57:33;;;;;;;7.60;5.05;;;24.10;99.90;;;;;;5035356;28;20485;-93
2021/06/15 07:59:59;;;;;;;10.48;5.22;;;24.10;99.90;;;;;;5035434;28;20021;-93
2021/06/15 08:02:25;;;;;;;8.18;5.32;;;24.20;99.90;;;;;;5035825;28;20033;-92
2021/06/15 08:04:50;;;;;;;6.50;5.43;;;24.10;99.90;;;;;;5018615;28;20022;-93
2021/06/15 08:07:16;;;;;;;8.02;5.13;;;24.30;99.90;;;;;;5035501;28;20121;-93
2021/06/15 08:09:41;;;;;;;7.95;5.45;;;24.60;99.90;;;;;;5036048;28;20029;-92
2021/06/15 08:12:07;;;;;;;6.72;5.18;;;24.60;99.90;;;;;;5036277;28;20061;-93
2021/06/15 08:14:33;;;;;;;6.35;5.20;;;24.60;99.90;;;;;;5035360;28;20034;-90
2021/06/15 08:16:59;;;;;;;5.78;5.25;;;24.70;99.90;;;;;;5034846;28;20394;-87
2021/06/15 08:19:26;;;;;;;5.90;5.30;;;24.60;99.90;;;;;;5016786;28;20022;-91
2021/06/15 08:21:51;;;;;;;12.48;5.82;;;24.70;99.90;;;;;;5034716;28;20049;-90
2021/06/15 08:24:17;;;;;;;14.82;5.50;;;24.60;99.90;;;;;;5016821;28;20517;-89
2021/06/15 08:26:43;;;;;;;5.90;5.28;;;24.70;99.90;;;;;;5034894;28;20068;-91
2021/06/15 08:29:10;;;;;;;8.45;5.13;;;25.00;99.90;;;;;;5031294;28;20029;-90
2021/06/15 08:31:35;;;;;;;5.85;5.10;;;25.00;99.90;;;;;;5034108;28;20404;-91
2021/06/15 08:34:01;;;;;;;6.78;5.43;;;24.80;99.90;;;;;;5000032;28;20033;-90
2021/06/15 08:36:27;;;;;;;7.03;5.13;;;24.80;99.90;;;;;;5034060;28;20056;-92
2021/06/15 08:38:52;;;;;;;9.63;5.50;;;24.90;99.90;;;;;;5034678;28;20410;-90
2021/06/15 08:41:19;;;;;;;7.28;5.38;;;25.10;99.90;;;;;;5016842;28;20045;-90
2021/06/15 08:43:46;;;;;;;6.25;5.05;;;25.30;99.90;;;;;;5034541;28;20029;-90
2021/06/15 08:46:13;;;;;;;7.45;5.18;;;25.20;99.90;;;;;;5033651;28;20112;-90
2021/06/15 08:48:39;;;;;;;7.97;5.63;;;25.40;99.90;;;;;;5033771;28;20101;-90
2021/06/15 08:51:05;;;;;;;8.25;5.60;;;25.30;99.90;;;;;;5034717;28;20108;-90
2021/06/15 08:53:35;;;;;;;7.93;5.60;;;25.10;99.90;;;;;;5034201;28;20036;-90
2021/06/15 08:56:16;;;;;;;7.32;5.50;;;25.20;99.90;;;;;;5016718;28;20038;-90
2021/06/15 08:59:00;;;;;;;6.55;5.47;;;25.40;99.90;;;;;;5032437;28;20457;-90
2021/06/15 09:01:26;;;;;;;6.25;4.88;;;25.40;99.90;;;;;;5033411;28;20437;-89
2021/06/15 09:03:53;;;;;;;6.63;5.70;;;25.40;99.90;;;;;;5033479;28;20029;-89
2021/06/15 09:06:19;;;;;;;6.45;5.60;;;25.50;99.90;;;;;;5018802;28;20489;-95
2021/06/15 09:09:00;;;;;;;7.50;5.40;;;25.70;99.90;;;;;;5012026;28;20069;-91
2021/06/15 09:11:27;;;;;;;6.13;5.53;;;25.90;99.90;;;;;;5025795;28;20025;-87
2021/06/15 09:13:54;;;;;;;8.10;5.78;;;26.00;99.90;;;;;;5018231;28;20044;-92
2021/06/15 09:16:22;;;;;;;7.50;5.40;;;26.10;99.90;;;;;;5012250;28;20042;-92
2021/06/15 09:18:50;;;;;;;5.60;5.15;;;26.20;99.90;;;;;;5030721;28;20021;-96
2021/06/15 09:21:31;;;;;;;8.80;5.35;;;26.40;99.90;;;;;;5030894;28;20039;-94
2021/06/15 09:24:24;;;;;;;7.22;5.07;;;26.60;99.90;;;;;;5027578;28;20061;-86
2021/06/15 09:27:05;;;;;;;5.68;5.03;;;26.50;99.90;;;;;;5016154;28;20029;-85
2021/06/15 09:29:46;;;;;;;7.18;5.00;;;26.50;99.90;;;;;;5024519;28;20116;-89
2021/06/15 09:32:30;;;;;;;7.68;5.43;;;26.70;99.90;;;;;;5007885;28;20128;-86
2021/06/15 09:34:59;;;;;;;7.47;5.40;;;26.80;99.90;;;;;;5020914;28;20057;-87
2021/06/15 09:37:34;;;;;;;6.07;5.38;;;26.90;99.90;;;;;;5015447;28;20022;-93
2021/06/15 09:40:03;;;;;;;6.55;5.00;;;26.90;99.90;;;;;;5021403;28;20029;-88
2021/06/15 09:42:31;;;;;;;6.63;5.40;;;26.80;99.90;;;;;;5025198;28;20187;-93
2021/06/15 09:44:56;;;;;;;5.65;4.97;;;26.90;99.90;;;;;;5019094;28;20068;-93
2021/06/15 09:47:24;;;;;;;6.10;4.63;;;26.90;99.90;;;;;;5029236;28;20478;-94
2021/06/15 09:49:50;;;;;;;7.43;4.90;;;27.20;99.90;;;;;;5032358;28;20047;-95
2021/06/15 09:52:20;;;;;;;5.50;4.97;;;27.00;99.90;;;;;;5024355;28;20029;-96
2021/06/15 09:55:06;;;;;;;5.13;4.65;;;26.90;99.90;;;;;;5030580;28;20056;-94
2021/06/15 09:57:34;;;;;;;5.00;4.50;;;26.90;99.90;;;;;;5030132;28;20029;-94
2021/06/15 10:00:21;;;;;;;4.90;4.50;;;27.30;99.90;;;;;;5031671;28;20028;-94
2021/06/15 10:02:50;;;;;;;5.82;3.83;;;27.60;99.90;;;;;;4998852;28;20025;-95
2021/06/15 10:05:36;;;;;;;4.65;4.20;;;27.80;99.90;;;;;;5033872;28;20052;-89
2021/06/15 10:08:08;;;;;;;5.65;4.13;;;27.90;99.90;;;;;;5034216;28;20600;-95
2021/06/15 10:10:37;;;;;;;5.15;4.50;;;27.80;99.90;;;;;;5031073;28;20032;-94
2021/06/15 10:13:04;;;;;;;5.28;4.78;;;27.80;99.90;;;;;;5032987;28;20029;-94
2021/06/15 10:15:30;;;;;;;5.68;4.95;;;27.80;99.90;;;;;;5027210;28;20376;-95
2021/06/15 10:17:57;;;;;;;7.80;4.60;;;27.70;99.90;;;;;;5028379;28;20026;-93
2021/06/15 10:20:26;;;;;;;5.53;4.53;;;27.90;99.90;;;;;;5032233;28;20025;-94
2021/06/15 10:22:52;;;;;;;9.15;4.18;;;28.10;99.90;;;;;;5033285;28;20061;-91
2021/06/15 10:25:20;;;;;;;4.97;4.45;;;28.00;99.90;;;;;;5030432;28;20040;-95
2021/06/15 10:27:47;;;;;;;5.32;4.10;;;28.10;99.90;;;;;;5032700;28;20021;-96
2021/06/15 10:30:14;;;;;;;5.18;4.15;;;28.30;99.90;;;;;;5033269;28;20037;-94
2021/06/15 10:33:02;;;;;;;5.68;4.07;;;28.50;99.90;;;;;;5015355;28;20037;-88
2021/06/15 10:35:53;;;;;;;8.52;4.70;;;28.40;99.90;;;;;;5015413;28;20041;-93
2021/06/15 10:38:24;;;;;;;4.10;3.70;;;28.30;99.90;;;;;;5020600;28;20036;-93
2021/06/15 10:40:51;;;;;;;4.93;4.05;;;28.20;99.90;;;;;;5032766;28;20029;-93
2021/06/15 10:43:28;;;;;;;5.15;3.97;;;28.30;99.90;;;;;;5032499;28;20034;-92
2021/06/15 10:45:59;;;;;;;3.90;3.60;;;28.20;99.90;;;;;;5010405;28;20039;-93
2021/06/15 10:48:28;;;;;;;3.88;3.30;;;28.50;99.90;;;;;;5033082;28;20551;-93
2021/06/15 10:50:56;;;;;;;4.72;3.03;;;28.70;99.90;;;;;;5032947;28;20033;-94
2021/06/15 10:53:37;;;;;;;5.85;3.00;;;28.80;99.90;;;;;;4999394;28;20028;-94
2021/06/15 10:56:06;;;;;;;4.15;3.20;;;28.60;99.90;;;;;;5014592;28;20041;-93
2021/06/15 10:58:32;;;;;;;3.90;3.60;;;28.60;99.90;;;;;;5018233;28;20026;-94
2021/06/15 11:01:20;;;;;;;5.28;3.42;;;28.40;99.90;;;;;;5032838;28;20601;-91
2021/06/15 11:03:53;;;;;;;3.30;2.97;;;28.80;99.90;;;;;;5032642;28;20470;-88
2021/06/15 11:06:21;;;;;;;3.28;2.67;;;29.00;99.90;;;;;;5031547;28;20056;-89
2021/06/15 11:09:09;;;;;;;3.33;2.92;;;29.20;99.90;;;;;;5013428;28;20026;-88
2021/06/15 11:11:36;;;;;;;2.75;2.55;;;29.10;99.90;;;;;;5013953;28;20120;-93
2021/06/15 11:14:22;;;;;;;3.85;2.92;;;29.20;99.90;;;;;;5032497;28;20029;-92
2021/06/15 11:16:57;;;;;;;3.55;2.97;;;29.20;99.90;;;;;;5031946;28;20414;-93
2021/06/15 11:19:22;;;;;;;3.72;2.88;;;29.10;99.90;;;;;;5032983;28;20079;-92
2021/06/15 11:21:55;;;;;;;4.28;2.60;;;29.40;99.90;;;;;;5032083;28;20045;-93
2021/06/15 11:24:31;;;;;;;2.88;2.67;;;29.50;99.90;;;;;;5033558;28;20377;-93
2021/06/15 11:27:25;;;;;;;3.33;2.70;;;29.60;99.90;;;;;;5036158;28;20048;-92
2021/06/15 11:30:13;;;;;;;2.38;2.17;;;29.60;99.90;;;;;;5011213;28;20064;-92
2021/06/15 11:32:57;;;;;;;3.10;2.53;;;29.70;99.90;;;;;;5025095;28;20099;-93
2021/06/15 11:35:23;;;;;;;2.45;2.25;;;29.70;99.90;;;;;;5033800;28;20037;-93
2021/06/15 11:37:51;;;;;;;9.32;2.70;;;29.90;99.90;;;;;;5018774;28;20032;-92
2021/06/15 11:40:27;;;;;;;4.07;2.78;;;29.90;99.90;;;;;;5036080;28;20096;-93
2021/06/15 11:43:16;;;;;;;7.95;3.15;;;29.80;99.90;;;;;;5036030;28;20370;-93
2021/06/15 11:45:44;;;;;;;3.75;2.65;;;29.90;99.90;;;;;;5010223;28;20025;-93
2021/06/15 11:48:33;;;;;;;2.58;2.38;;;30.20;99.90;;;;;;5024031;28;20022;-93
2021/06/15 11:51:09;;;;;;;3.05;2.25;;;30.40;99.90;;;;;;5022622;28;20029;-93
2021/06/15 11:53:37;;;;;;;4.97;2.35;;;30.70;99.90;;;;;;5036182;28;20026;-93
2021/06/15 11:56:09;;;;;;;3.63;2.60;;;30.70;99.90;;;;;;5035789;28;20037;-92
2021/06/15 11:58:55;;;;;;;2.78;2.38;;;30.80;99.90;;;;;;5035719;28;20032;-93
2021/06/15 12:01:22;;;;;;;2.40;2.17;;;31.00;99.90;;;;;;5035917;28;20034;-93
2021/06/15 12:03:49;;;;;;;3.15;2.60;;;31.10;99.90;;;;;;5035828;28;20025;-93
2021/06/15 12:06:17;;;;;;;2.55;2.28;;;31.50;99.90;;;;;;5035747;28;20044;-93
2021/06/15 12:08:44;;;;;;;2.88;2.13;;;31.60;99.90;;;;;;5019667;28;20055;-93
2021/06/15 12:11:14;;;;;;;2.40;2.20;;;31.90;99.90;;;;;;5031812;28;20520;-92
2021/06/15 12:13:41;;;;;;;3.53;2.38;;;32.50;99.90;;;;;;5035568;28;20029;-93
2021/06/15 12:16:11;;;;;;;3.40;3.05;;;34.00;99.90;;;;;;5013229;28;20040;-93
2021/06/15 12:18:41;;;;;;;2.83;2.63;;;34.70;99.90;;;;;;5034991;28;20022;-92
2021/06/15 12:21:08;;;;;;;3.20;2.53;;;35.90;99.90;;;;;;5035274;28;20398;-93
2021/06/15 12:23:41;;;;;;;4.18;2.40;;;37.30;99.90;;;;;;5034766;28;20049;-93
2021/06/15 12:26:19;;;;;;;2.50;2.10;;;39.10;99.90;;;;;;5034458;28;20029;-92
2021/06/15 12:28:52;;;;;;;2.38;2.17;;;39.10;99.90;;;;;;5034566;28;20556;-92
2021/06/15 12:31:24;;;;;;;3.05;2.10;;;39.30;99.90;;;;;;5034933;28;20026;-92
2021/06/15 12:33:58;;;;;;;2.75;1.98;;;40.30;99.90;;;;;;5034932;28;20045;-92
2021/06/15 12:36:26;;;;;;;2.70;2.42;;;40.50;99.90;;;;;;5015646;28;20407;-93
2021/06/15 12:38:53;;;;;;;3.85;2.30;;;40.10;99.90;;;;;;5034458;28;20494;-93
2021/06/15 12:41:23;;;;;;;3.90;2.40;;;40.80;99.90;;;;;;5017613;28;20021;-93
2021/06/15 12:43:51;;;;;;;4.40;2.13;;;40.40;99.90;;;;;;5035429;28;20494;-94
2021/06/15 12:46:19;;;;;;;5.25;2.30;;;40.00;99.90;;;;;;5034474;28;20044;-93
2021/06/15 12:48:45;;;;;;;3.40;1.85;;;40.20;99.90;;;;;;5034524;28;20020;-93
2021/06/15 12:51:13;;;;;;;2.85;2.55;;;40.10;99.90;;;;;;5034268;28;20517;-92
2021/06/15 12:53:40;;;;;;;2.67;2.00;;;40.50;99.90;;;;;;5034504;28;20104;-93
2021/06/15 12:56:22;;;;;;;2.90;2.40;;;39.50;99.90;;;;;;5035210;28;20043;-93
2021/06/15 12:58:50;;;;;;;4.68;2.78;;;39.50;99.90;;;;;;5033908;28;20083;-93
2021/06/15 13:01:34;;;;;;;3.03;2.17;;;39.40;99.90;;;;;;5034145;28;20389;-93
2021/06/15 13:04:19;;;;;;;3.65;2.85;;;39.50;99.90;;;;;;5034121;28;20029;-93